Time;durP1;ratioP1;P1;durP2;ratioP2;P2;SDS_P1;SDS_P2;PMS_P1;PMS_P2;Temp;Humidity;BMP_temperature;BMP_pressure;BME280_temperature;BME280_humidity;BME280_pressure;Samples;Min_cycle;Max_cycle;Signal;HPM_P1;HPM_P2
2022/03/17 00:02:04;;;;;;;31.70;21.40;;;;;;;2.29;71.42;97666.67;1728862;81;21048;-79
2022/03/17 00:04:30;;;;;;;28.02;21.23;;;;;;;2.26;71.50;97669.41;1734123;82;20978;-79
2022/03/17 00:06:56;;;;;;;28.87;21.48;;;;;;;2.23;71.63;97670.07;1748635;81;20957;-79
2022/03/17 00:09:22;;;;;;;29.65;21.70;;;;;;;2.19;71.58;97670.73;1745001;81;21008;-79
2022/03/17 00:11:48;;;;;;;28.87;21.62;;;;;;;2.20;71.60;97671.55;1745764;81;20917;-79
2022/03/17 00:14:14;;;;;;;27.77;20.57;;;;;;;2.19;71.54;97673.30;1686427;84;21056;-79
2022/03/17 00:16:40;;;;;;;26.82;20.40;;;;;;;2.20;71.49;97670.27;1751361;81;21348;-79
2022/03/17 00:19:07;;;;;;;27.15;20.50;;;;;;;2.22;71.48;97677.41;1748006;81;20945;-80
2022/03/17 00:21:36;;;;;;;28.07;21.75;;;;;;;2.21;71.45;97677.86;1755495;80;21399;-79
2022/03/17 00:24:03;;;;;;;29.00;22.48;;;;;;;2.21;71.54;97677.05;1743814;81;21025;-79
2022/03/17 00:26:29;;;;;;;30.00;22.52;;;;;;;2.19;71.61;97681.45;1742062;81;21045;-79
2022/03/17 00:28:55;;;;;;;31.68;24.37;;;;;;;2.19;71.60;97684.02;1716168;83;21033;-80
2022/03/17 00:31:21;;;;;;;31.45;23.42;;;;;;;2.18;71.68;97683.66;1734061;81;20937;-79
2022/03/17 00:33:47;;;;;;;29.75;21.27;;;;;;;2.15;71.72;97683.39;1725120;81;21024;-79
2022/03/17 00:36:13;;;;;;;30.70;23.22;;;;;;;2.13;71.79;97682.67;1765944;81;21433;-79
2022/03/17 00:38:38;;;;;;;29.67;22.40;;;;;;;2.11;71.90;97683.20;1754962;81;21008;-79
2022/03/17 00:41:04;;;;;;;33.90;25.43;;;;;;;2.10;71.94;97683.66;1746718;81;21040;-79
2022/03/17 00:43:30;;;;;;;32.08;23.22;;;;;;;2.10;71.99;97678.53;1740538;81;21095;-79
2022/03/17 00:45:56;;;;;;;31.40;23.15;;;;;;;2.10;72.05;97686.23;1738583;81;21005;-79
2022/03/17 00:48:22;;;;;;;31.10;22.00;;;;;;;2.07;72.05;97682.59;1746779;81;21091;-80
2022/03/17 00:50:48;;;;;;;34.95;23.85;;;;;;;2.03;72.06;97684.98;1748504;81;21103;-79
2022/03/17 00:53:13;;;;;;;35.13;25.02;;;;;;;2.03;72.06;97679.03;1747845;81;21142;-79
2022/03/17 00:55:39;;;;;;;31.57;24.57;;;;;;;2.01;72.06;97676.58;1745782;82;20988;-79
2022/03/17 00:58:05;;;;;;;38.20;27.25;;;;;;;2.02;72.10;97678.68;1742276;81;21352;-79
2022/03/17 01:00:31;;;;;;;38.40;28.73;;;;;;;2.00;72.21;97683.08;1742419;81;21056;-79
2022/03/17 01:02:57;;;;;;;39.92;29.42;;;;;;;2.02;72.28;97681.24;1733271;81;20930;-79
2022/03/17 01:05:23;;;;;;;34.55;25.85;;;;;;;2.03;72.29;97682.42;1728244;81;20993;-79
2022/03/17 01:07:54;;;;;;;33.10;23.73;;;;;;;2.01;72.33;97677.03;1749243;81;21376;-79
2022/03/17 01:10:20;;;;;;;30.65;22.52;;;;;;;2.00;72.31;97675.39;1735610;81;20956;-79
2022/03/17 01:12:46;;;;;;;32.58;21.93;;;;;;;1.99;72.31;97663.50;1761797;81;20945;-79
2022/03/17 01:15:15;;;;;;;31.75;22.27;;;;;;;1.99;72.18;97666.88;1746489;81;21847;-79
2022/03/17 01:17:41;;;;;;;36.95;25.40;;;;;;;2.00;72.09;97658.73;1763592;81;20939;-79
2022/03/17 01:20:08;;;;;;;35.13;24.00;;;;;;;2.01;72.24;97657.80;1746361;80;21036;-79
2022/03/17 01:22:34;;;;;;;30.57;22.90;;;;;;;1.99;72.24;97653.24;1764242;81;21016;-79
2022/03/17 01:25:00;;;;;;;33.05;24.35;;;;;;;1.96;72.21;97652.16;1763996;81;20898;-79
2022/03/17 01:27:26;;;;;;;37.08;27.90;;;;;;;1.96;72.26;97648.31;1764394;81;21033;-79
2022/03/17 01:29:53;;;;;;;34.23;25.40;;;;;;;1.96;72.37;97654.27;1676953;85;21483;-79
2022/03/17 01:32:20;;;;;;;35.20;26.40;;;;;;;1.97;72.35;97653.80;1693905;84;21041;-79
2022/03/17 01:34:46;;;;;;;43.08;31.15;;;;;;;1.99;72.40;97653.24;1691165;84;21028;-79
2022/03/17 01:37:11;;;;;;;43.35;29.57;;;;;;;1.99;72.39;97653.24;1692334;84;20997;-79
2022/03/17 01:39:37;;;;;;;39.00;27.05;;;;;;;2.01;72.49;97653.50;1701012;84;21073;-79
2022/03/17 01:42:05;;;;;;;36.68;27.65;;;;;;;2.03;72.52;97658.53;1756016;81;21056;-79
2022/03/17 01:44:31;;;;;;;33.83;25.48;;;;;;;2.02;72.60;97656.42;1744757;81;20957;-79
2022/03/17 01:49:41;;;;;;;36.35;25.43;;;;;;;1.99;72.51;97664.31;1682129;84;21396;-79
2022/03/17 01:52:07;;;;;;;34.20;25.10;;;;;;;1.98;72.46;97665.23;1678592;84;21065;-79
2022/03/17 01:54:34;;;;;;;39.78;27.37;;;;;;;1.98;72.55;97667.80;1687261;85;21060;-79
2022/03/17 01:57:00;;;;;;;35.20;25.37;;;;;;;1.97;72.68;97666.16;1659835;84;21061;-79
2022/03/17 01:59:29;;;;;;;32.28;24.30;;;;;;;1.94;72.62;97669.34;1734673;81;21068;-79
2022/03/17 02:01:54;;;;;;;40.98;28.12;;;;;;;1.90;72.58;97670.02;1722442;81;21007;-79
2022/03/17 02:04:20;;;;;;;38.60;27.37;;;;;;;1.90;72.59;97670.47;1703796;83;21068;-79
2022/03/17 02:06:47;;;;;;;31.80;24.95;;;;;;;1.92;72.59;97675.04;1753011;81;20968;-79
2022/03/17 02:09:13;;;;;;;29.72;22.00;;;;;;;1.90;72.55;97672.58;1744904;81;21379;-79
2022/03/17 02:14:23;;;;;;;20.90;16.32;;;;;;;1.85;72.56;97661.80;1688038;83;21422;-79
2022/03/17 02:16:52;;;;;;;26.00;18.67;;;;;;;1.84;72.65;97661.44;1688914;84;21001;-79
2022/03/17 02:19:22;;;;;;;36.33;23.98;;;;;;;1.82;72.56;97665.84;1695270;84;21391;-79
2022/03/17 02:21:49;;;;;;;28.05;19.65;;;;;;;1.79;72.56;97659.17;1697381;84;21060;-79
2022/03/17 02:27:02;;;;;;;25.12;17.98;;;;;;;1.82;72.50;97661.17;1701921;84;21076;-79
2022/03/17 02:29:27;;;;;;;26.35;20.10;;;;;;;1.79;72.80;97662.19;1701892;84;21038;-79
2022/03/17 02:31:53;;;;;;;29.87;21.42;;;;;;;1.86;72.81;97664.72;1700910;84;21101;-79
2022/03/17 02:34:19;;;;;;;22.32;17.65;;;;;;;1.90;72.77;97658.48;1692446;84;21042;-79
2022/03/17 02:36:48;;;;;;;37.38;26.48;;;;;;;1.89;73.13;97676.06;1662189;85;21431;-79
2022/03/17 02:39:16;;;;;;;40.38;30.37;;;;;;;1.84;72.82;97679.84;1692729;84;21044;-79
2022/03/17 02:41:41;;;;;;;39.35;29.30;;;;;;;1.83;72.74;97687.16;1697010;84;21041;-79
2022/03/17 02:44:07;;;;;;;39.85;30.02;;;;;;;1.84;72.72;97688.80;1688409;84;21090;-79
2022/03/17 02:46:33;;;;;;;41.28;29.77;;;;;;;1.84;72.60;97690.09;1684931;84;21123;-79
2022/03/17 02:48:59;;;;;;;40.45;28.75;;;;;;;1.82;72.54;97690.64;1692455;84;21021;-79
2022/03/17 02:51:25;;;;;;;40.48;29.55;;;;;;;1.75;72.52;97686.34;1691024;84;21362;-79
2022/03/17 02:53:50;;;;;;;37.40;29.15;;;;;;;1.71;72.53;97684.89;1690286;84;21074;-79
2022/03/17 02:56:16;;;;;;;40.90;28.60;;;;;;;1.69;72.59;97681.15;1675222;84;21106;-79
2022/03/17 02:58:42;;;;;;;38.50;27.07;;;;;;;1.66;72.67;97686.92;1679448;84;21464;-79
2022/03/17 03:01:08;;;;;;;34.48;25.40;;;;;;;1.66;72.71;97689.49;1671337;85;21034;-79
2022/03/17 03:03:33;;;;;;;38.10;27.10;;;;;;;1.62;72.56;97690.11;1666424;85;21137;-79
2022/03/17 03:05:59;;;;;;;32.35;25.23;;;;;;;1.61;72.50;97702.56;1689004;84;21045;-79
2022/03/17 03:08:26;;;;;;;36.30;26.80;;;;;;;1.62;72.59;97705.48;1658490;83;21048;-79
2022/03/17 03:10:52;;;;;;;32.03;23.90;;;;;;;1.58;72.55;97707.87;1692105;84;20992;-79
2022/03/17 03:13:18;;;;;;;33.15;24.20;;;;;;;1.53;72.67;97702.22;1705630;84;20953;-79
2022/03/17 03:15:44;;;;;;;26.27;20.45;;;;;;;1.51;72.67;97707.90;1689868;84;21028;-79
2022/03/17 03:18:10;;;;;;;27.27;21.87;;;;;;;1.47;72.68;97708.55;1693936;84;20973;-79
2022/03/17 03:20:38;;;;;;;29.23;21.37;;;;;;;1.44;72.72;97703.59;1690083;84;21403;-79
2022/03/17 03:23:04;;;;;;;27.82;20.60;;;;;;;1.41;72.81;97705.06;1735713;81;21020;-79
2022/03/17 03:25:30;;;;;;;30.10;20.72;;;;;;;1.40;72.83;97707.72;1740530;81;21016;-79
2022/03/17 03:27:56;;;;;;;31.30;23.62;;;;;;;1.36;72.76;97714.77;1757172;81;21392;-79
2022/03/17 03:30:21;;;;;;;38.53;27.22;;;;;;;1.36;72.93;97716.05;1748742;81;21000;-79
2022/03/17 03:32:50;;;;;;;39.53;29.95;;;;;;;1.36;72.83;97711.38;1681466;84;21049;-79
2022/03/17 03:38:00;;;;;;;36.20;26.15;;;;;;;1.42;73.01;97719.51;1759443;81;21045;-79
2022/03/17 03:40:26;;;;;;;36.73;27.20;;;;;;;1.42;72.94;97719.97;1765621;81;21107;-79
2022/03/17 03:42:52;;;;;;;42.45;29.02;;;;;;;1.39;72.84;97723.54;1759472;81;21671;-79
2022/03/17 03:45:18;;;;;;;36.20;27.37;;;;;;;1.38;72.90;97724.92;1733197;81;21073;-79
2022/03/17 03:47:44;;;;;;;41.18;28.07;;;;;;;1.37;72.87;97732.23;1752739;81;21044;-79
2022/03/17 03:50:10;;;;;;;36.80;25.68;;;;;;;1.32;72.92;97737.64;1748302;80;21170;-79
2022/03/17 03:52:35;;;;;;;35.43;26.30;;;;;;;1.31;73.03;97746.70;1741538;81;21124;-79
2022/03/17 03:55:01;;;;;;;37.08;26.60;;;;;;;1.28;73.05;97749.41;1740049;81;21380;-79
2022/03/17 03:57:27;;;;;;;36.93;23.83;;;;;;;1.24;73.25;97742.38;1734532;81;21013;-79
2022/03/17 03:59:52;;;;;;;32.88;24.90;;;;;;;1.18;73.19;97743.57;1760019;81;21004;-79
2022/03/17 04:02:18;;;;;;;33.60;25.45;;;;;;;1.11;73.35;97734.59;1745232;81;21032;-79
2022/03/17 04:04:44;;;;;;;37.30;25.82;;;;;;;1.08;73.42;97739.89;1747226;82;20992;-79
2022/03/17 04:07:11;;;;;;;29.90;22.27;;;;;;;1.07;73.47;97737.42;1733118;82;20924;-79
2022/03/17 04:09:41;;;;;;;37.20;23.87;;;;;;;1.05;73.76;97736.70;1748310;81;21020;-79
2022/03/17 04:12:11;;;;;;;32.08;23.67;;;;;;;1.03;73.79;97732.95;1756747;81;21052;-79
2022/03/17 04:14:37;;;;;;;28.47;21.50;;;;;;;1.01;73.87;97734.78;1750090;81;21290;-79
2022/03/17 04:17:04;;;;;;;31.33;23.40;;;;;;;1.01;73.87;97739.08;1748094;81;21384;-79
2022/03/17 04:19:30;;;;;;;28.12;21.48;;;;;;;1.01;73.89;97739.08;1749563;81;21013;-79
2022/03/17 04:21:56;;;;;;;29.30;22.17;;;;;;;1.00;73.93;97743.83;1743715;81;20996;-79
2022/03/17 04:24:23;;;;;;;30.23;22.22;;;;;;;0.99;73.87;97748.58;1749283;81;21402;-79
2022/03/17 04:26:49;;;;;;;29.35;22.15;;;;;;;0.98;73.76;97749.50;1764971;81;20933;-79
2022/03/17 04:29:14;;;;;;;30.60;22.20;;;;;;;0.96;73.64;97750.84;1762867;81;21032;-79
2022/03/17 04:31:41;;;;;;;30.23;22.65;;;;;;;0.98;73.61;97741.81;1761392;81;21036;-79
2022/03/17 04:34:07;;;;;;;30.12;22.52;;;;;;;0.97;73.47;97739.69;1755529;81;21035;-79
2022/03/17 04:36:33;;;;;;;32.30;24.70;;;;;;;0.99;73.40;97739.63;1754715;81;20971;-79
2022/03/17 04:39:00;;;;;;;28.12;23.05;;;;;;;0.97;73.47;97738.41;1764234;81;20992;-79
2022/03/17 04:41:26;;;;;;;30.82;22.48;;;;;;;0.97;73.35;97732.47;1764867;81;21336;-79
2022/03/17 04:43:52;;;;;;;32.03;22.98;;;;;;;0.95;73.28;97733.84;1751546;81;21004;-79
2022/03/17 04:46:18;;;;;;;32.53;22.02;;;;;;;0.94;73.19;97733.92;1725057;81;20977;-79
2022/03/17 04:48:44;;;;;;;29.12;23.57;;;;;;;0.91;73.12;97740.05;1715783;84;20966;-79
2022/03/17 04:51:09;;;;;;;31.17;23.15;;;;;;;0.90;73.12;97727.72;1752569;81;20952;-79
2022/03/17 04:53:35;;;;;;;30.88;22.52;;;;;;;0.89;73.04;97736.77;1756254;81;20993;-79
2022/03/17 04:56:05;;;;;;;32.17;23.20;;;;;;;0.86;73.09;97739.50;1760897;81;20929;-79
2022/03/17 04:58:33;;;;;;;35.50;25.50;;;;;;;0.87;73.17;97739.88;1751266;81;20995;-79
2022/03/17 05:01:00;;;;;;;34.00;26.40;;;;;;;0.88;73.17;97745.35;1741772;81;21021;-79
2022/03/17 05:03:26;;;;;;;42.48;30.85;;;;;;;0.90;73.19;97740.97;1750620;81;21487;-79
2022/03/17 05:05:52;;;;;;;43.33;32.03;;;;;;;0.88;73.38;97746.17;1764937;81;21052;-79
2022/03/17 05:08:18;;;;;;;39.20;28.27;;;;;;;0.89;73.50;97750.38;1764430;81;21120;-79
2022/03/17 05:10:44;;;;;;;37.20;28.05;;;;;;;0.86;73.34;97749.28;1754932;81;21029;-79
2022/03/17 05:13:11;;;;;;;40.48;28.17;;;;;;;0.83;73.31;97743.06;1687152;83;20988;-79
2022/03/17 05:15:37;;;;;;;40.03;29.67;;;;;;;0.80;73.41;97736.00;1702005;84;21046;-79
2022/03/17 05:18:04;;;;;;;38.67;26.90;;;;;;;0.79;73.67;97734.36;1693869;84;20986;-79
2022/03/17 05:20:31;;;;;;;34.78;26.25;;;;;;;0.79;73.71;97738.19;1673709;85;21951;-79
2022/03/17 05:22:57;;;;;;;42.58;28.60;;;;;;;0.73;73.61;97730.42;1678693;84;21054;-79
2022/03/17 05:25:24;;;;;;;36.65;27.37;;;;;;;0.70;73.72;97732.34;1674139;84;21115;-79
2022/03/17 05:27:50;;;;;;;33.85;26.70;;;;;;;0.70;74.03;97734.44;1673258;84;21008;-79
2022/03/17 05:30:18;;;;;;;36.65;28.15;;;;;;;0.69;74.01;97731.97;1683770;84;20946;-79
2022/03/17 05:32:44;;;;;;;40.88;31.70;;;;;;;0.68;74.12;97741.38;1692938;84;20994;-79
2022/03/17 05:35:10;;;;;;;46.13;33.25;;;;;;;0.68;74.57;97736.72;1748029;81;20996;-79
2022/03/17 05:37:36;;;;;;;47.17;36.77;;;;;;;0.66;74.63;97730.88;1743566;81;21948;-79
2022/03/17 05:40:05;;;;;;;50.03;35.50;;;;;;;0.66;75.04;97737.27;1735102;81;21020;-79
2022/03/17 05:42:32;;;;;;;49.53;35.50;;;;;;;0.67;75.07;97737.18;1745173;81;21028;-79
2022/03/17 05:44:58;;;;;;;52.05;38.00;;;;;;;0.65;75.18;97738.16;1748897;81;21480;-79
2022/03/17 05:47:24;;;;;;;52.15;38.60;;;;;;;0.61;75.34;97741.34;1735904;81;20989;-79
2022/03/17 05:49:49;;;;;;;58.40;40.08;;;;;;;0.62;75.49;97737.05;1755023;81;21037;-80
2022/03/17 05:52:15;;;;;;;57.17;43.52;;;;;;;0.60;75.75;97734.12;1749966;81;21044;-79
2022/03/17 05:54:41;;;;;;;61.90;42.00;;;;;;;0.58;75.92;97744.08;1748419;81;21328;-79
2022/03/17 05:57:11;;;;;;;64.62;44.03;;;;;;;0.55;75.85;97743.80;1746340;81;20948;-79
2022/03/17 05:59:39;;;;;;;66.15;44.38;;;;;;;0.55;75.90;97746.36;1742512;81;20965;-80
2022/03/17 06:02:04;;;;;;;73.60;48.45;;;;;;;0.54;76.00;97752.84;1741861;81;21415;-79
2022/03/17 06:04:30;;;;;;;67.97;49.27;;;;;;;0.53;76.02;97758.88;1740631;81;20945;-79
2022/03/17 06:06:56;;;;;;;65.10;47.10;;;;;;;0.57;76.12;97760.34;1759453;81;21024;-79
2022/03/17 06:09:22;;;;;;;61.08;47.43;;;;;;;0.57;76.04;97768.02;1753884;81;21107;-78
2022/03/17 06:11:48;;;;;;;67.50;45.33;;;;;;;0.59;76.17;97771.30;1734451;81;21052;-78
2022/03/17 06:14:14;;;;;;;65.65;46.13;;;;;;;0.63;76.24;97769.39;1744218;81;21005;-79
2022/03/17 06:16:39;;;;;;;64.53;45.88;;;;;;;0.67;76.12;97770.89;1744279;81;21088;-79
2022/03/17 06:19:05;;;;;;;66.57;45.83;;;;;;;0.69;75.97;97775.46;1737905;81;20993;-79
2022/03/17 06:21:31;;;;;;;61.00;41.07;;;;;;;0.76;75.96;97772.91;1712806;82;21378;-79
2022/03/17 06:23:56;;;;;;;58.30;41.25;;;;;;;0.79;75.90;97777.39;1735357;82;20979;-79
2022/03/17 06:26:22;;;;;;;50.40;36.85;;;;;;;0.83;75.86;97767.83;1744581;81;20957;-79
2022/03/17 06:28:48;;;;;;;57.03;39.35;;;;;;;0.90;75.85;97775.06;1751680;81;20937;-79
2022/03/17 06:31:14;;;;;;;48.83;37.60;;;;;;;0.97;75.69;97778.08;1739460;81;20980;-80
2022/03/17 06:33:39;;;;;;;45.35;34.85;;;;;;;1.03;75.73;97780.30;1743568;81;20988;-79
2022/03/17 06:36:05;;;;;;;51.55;35.92;;;;;;;1.10;75.69;97785.42;1734409;81;21346;-80
2022/03/17 06:38:31;;;;;;;55.20;37.13;;;;;;;1.18;75.70;97788.84;1735499;81;20918;-79
2022/03/17 06:40:57;;;;;;;47.48;35.33;;;;;;;1.22;75.50;97784.35;1734367;83;21008;-79
2022/03/17 06:43:23;;;;;;;44.67;31.68;;;;;;;1.26;75.47;97795.59;1734607;81;20989;-79
2022/03/17 06:45:50;;;;;;;40.28;30.52;;;;;;;1.29;75.13;97790.75;1740311;81;21371;-79
2022/03/17 06:48:15;;;;;;;32.60;24.37;;;;;;;1.31;75.15;97800.47;1716722;82;20958;-80
2022/03/17 06:50:41;;;;;;;41.30;31.12;;;;;;;1.36;74.70;97806.96;1733784;81;20950;-79
2022/03/17 06:53:07;;;;;;;33.83;27.10;;;;;;;1.41;74.83;97808.78;1742762;81;20953;-80
2022/03/17 06:55:33;;;;;;;34.53;24.40;;;;;;;1.49;74.74;97814.76;1745850;81;21060;-79
2022/03/17 06:58:01;;;;;;;35.38;26.87;;;;;;;1.55;74.81;97823.81;1726297;81;21599;-79
2022/03/17 07:00:27;;;;;;;45.65;34.60;;;;;;;1.64;74.84;97832.24;1754369;80;21040;-79
2022/03/17 07:02:52;;;;;;;36.48;26.62;;;;;;;1.75;74.69;97832.41;1725854;80;21074;-80
2022/03/17 07:05:18;;;;;;;40.25;28.47;;;;;;;1.86;74.62;97842.03;1737579;81;21386;-79
2022/03/17 07:07:44;;;;;;;44.35;32.08;;;;;;;1.96;74.52;97845.24;1742284;81;20990;-79
2022/03/17 07:10:11;;;;;;;42.70;30.75;;;;;;;2.07;74.52;97841.55;1748033;81;20966;-79
2022/03/17 07:12:38;;;;;;;49.63;34.88;;;;;;;2.16;74.54;97848.33;1755862;80;21371;-79
2022/03/17 07:15:04;;;;;;;47.53;36.60;;;;;;;2.22;74.39;97850.05;1756356;81;21052;-79
2022/03/17 07:17:39;;;;;;;46.00;34.58;;;;;;;2.32;74.36;97849.03;1740847;81;21036;-79
2022/03/17 07:20:04;;;;;;;46.95;34.65;;;;;;;2.45;74.26;97855.06;1739899;81;20977;-79
2022/03/17 07:22:30;;;;;;;42.73;30.82;;;;;;;2.58;73.89;97862.80;1759644;81;21347;-79
2022/03/17 07:24:56;;;;;;;42.10;31.48;;;;;;;2.68;73.98;97858.74;1746095;81;21013;-79
2022/03/17 07:27:22;;;;;;;43.48;32.55;;;;;;;2.75;73.87;97856.14;1756279;80;20972;-79
2022/03/17 07:29:48;;;;;;;35.30;25.00;;;;;;;2.81;74.01;97854.48;1675324;84;20958;-79
2022/03/17 07:32:14;;;;;;;41.60;30.55;;;;;;;2.88;73.39;97848.03;1679336;84;20957;-79
2022/03/17 07:34:40;;;;;;;34.80;24.37;;;;;;;2.92;72.88;97848.19;1685972;84;20940;-79
2022/03/17 07:37:06;;;;;;;53.08;38.50;;;;;;;3.01;73.01;97848.07;1694512;84;20961;-79
2022/03/17 07:39:31;;;;;;;68.40;48.40;;;;;;;3.05;72.61;97842.27;1682529;84;21317;-80
2022/03/17 07:41:57;;;;;;;73.30;53.35;;;;;;;3.10;72.89;97853.09;1695575;83;21040;-80
2022/03/17 07:44:23;;;;;;;74.70;53.85;;;;;;;3.14;72.52;97854.06;1733868;81;21069;-80
2022/03/17 07:46:49;;;;;;;70.30;48.10;;;;;;;3.19;72.46;97858.89;1736308;81;21403;-80
2022/03/17 07:49:14;;;;;;;69.77;52.20;;;;;;;3.26;72.31;97862.73;1749456;81;21339;-80
2022/03/17 07:51:42;;;;;;;66.90;47.48;;;;;;;3.31;72.12;97861.95;1748644;81;20985;-80
2022/03/17 07:54:07;;;;;;;64.53;45.95;;;;;;;3.40;71.74;97871.61;1744274;81;20981;-80
2022/03/17 07:56:34;;;;;;;73.75;53.33;;;;;;;3.46;71.78;97866.55;1747741;81;21358;-80
2022/03/17 07:58:59;;;;;;;71.33;52.35;;;;;;;3.53;71.89;97867.78;1739021;81;21075;-80
2022/03/17 08:01:25;;;;;;;56.50;39.18;;;;;;;3.66;72.00;97878.08;1746040;81;20977;-80
2022/03/17 08:03:54;;;;;;;74.03;54.27;;;;;;;3.73;70.94;97875.44;1746160;81;21039;-80
2022/03/17 08:06:21;;;;;;;77.97;53.80;;;;;;;3.76;71.32;97877.84;1756989;81;20938;-80
2022/03/17 08:08:47;;;;;;;78.05;56.13;;;;;;;3.82;71.48;97881.27;1743031;81;20913;-80
2022/03/17 08:11:13;;;;;;;79.80;57.90;;;;;;;3.89;71.51;97882.02;1741276;81;20993;-80
2022/03/17 08:13:39;;;;;;;80.40;57.38;;;;;;;3.90;71.25;97881.56;1739937;81;20972;-80
2022/03/17 08:16:06;;;;;;;76.02;56.33;;;;;;;3.90;70.84;97872.56;1731737;81;21060;-80
2022/03/17 08:18:34;;;;;;;71.95;53.00;;;;;;;3.97;71.26;97880.23;1744856;81;20985;-80
2022/03/17 08:21:00;;;;;;;79.03;55.03;;;;;;;4.00;70.54;97876.16;1729695;81;21447;-80
2022/03/17 08:23:26;;;;;;;70.87;52.05;;;;;;;3.97;70.49;97881.52;1742791;81;21041;-80
2022/03/17 08:25:51;;;;;;;73.78;53.05;;;;;;;3.99;70.08;97883.52;1742752;81;21036;-80
2022/03/17 08:28:18;;;;;;;71.75;51.15;;;;;;;4.04;70.26;97889.17;1739723;81;21036;-80
2022/03/17 08:30:48;;;;;;;74.10;52.45;;;;;;;4.17;70.37;97889.16;1751727;81;20953;-80
2022/03/17 08:33:15;;;;;;;68.25;49.18;;;;;;;4.27;70.53;97890.66;1735140;81;21308;-80
2022/03/17 08:35:41;;;;;;;66.70;49.93;;;;;;;4.37;70.06;97887.32;1736657;81;20991;-80
2022/03/17 08:38:07;;;;;;;60.17;45.03;;;;;;;4.50;70.53;97890.69;1741033;81;21032;-80
2022/03/17 08:40:33;;;;;;;56.80;43.30;;;;;;;4.65;69.84;97885.40;1741227;81;21036;-80
2022/03/17 08:42:59;;;;;;;71.07;52.43;;;;;;;4.75;70.20;97885.13;1734652;81;21412;-80
2022/03/17 08:50:54;;;;;;;73.80;51.40;;;;;;;4.98;68.81;97879.14;1743446;80;21000;-80
2022/03/17 08:53:20;;;;;;;72.35;52.53;;;;;;;4.89;68.02;97886.25;1733740;81;21453;-80
2022/03/17 08:55:46;;;;;;;73.75;53.40;;;;;;;4.87;69.24;97890.66;1738130;81;21081;-80
2022/03/17 08:58:12;;;;;;;67.90;51.28;;;;;;;4.95;69.49;97892.25;1740023;81;21026;-80
2022/03/17 09:00:40;;;;;;;63.08;46.70;;;;;;;5.03;69.04;97890.39;1736026;81;20969;-80
2022/03/17 09:03:06;;;;;;;69.72;50.73;;;;;;;5.10;69.29;97889.86;1742644;81;21016;-80
2022/03/17 09:05:33;;;;;;;74.10;52.95;;;;;;;5.19;68.28;97887.53;1681658;84;21025;-80
2022/03/17 09:08:00;;;;;;;70.65;51.28;;;;;;;5.24;68.15;97891.91;1738110;81;20929;-80
2022/03/17 09:10:27;;;;;;;71.62;51.80;;;;;;;5.32;67.95;97896.84;1743091;81;20981;-80
2022/03/17 09:12:55;;;;;;;58.50;44.10;;;;;;;5.40;67.57;97891.97;1737873;81;21082;-80
2022/03/17 09:15:22;;;;;;;55.98;38.88;;;;;;;5.49;66.55;97894.78;1724715;81;20937;-80
2022/03/17 09:17:49;;;;;;;66.55;47.75;;;;;;;5.55;65.59;97898.22;1691488;83;21012;-80
2022/03/17 09:20:15;;;;;;;76.40;53.73;;;;;;;5.58;67.11;97900.09;1680737;84;21080;-80
2022/03/17 09:22:43;;;;;;;72.40;53.78;;;;;;;5.59;66.11;97903.50;1744876;81;21029;-80
2022/03/17 09:25:10;;;;;;;68.17;52.78;;;;;;;5.63;66.84;97902.33;1747446;81;21037;-80
2022/03/17 09:27:35;;;;;;;66.15;48.68;;;;;;;5.72;66.69;97901.19;1744841;81;21038;-81
2022/03/17 09:30:01;;;;;;;70.47;49.42;;;;;;;5.84;66.27;97909.75;1734277;81;21551;-80
2022/03/17 09:32:27;;;;;;;66.45;50.40;;;;;;;5.87;65.06;97904.38;1753818;81;21024;-80
2022/03/17 09:34:53;;;;;;;48.87;35.05;;;;;;;5.93;64.98;97894.09;1690163;84;20996;-80
2022/03/17 09:37:19;;;;;;;60.80;43.30;;;;;;;5.99;63.93;97898.31;1755755;81;21015;-80
2022/03/17 09:39:47;;;;;;;59.70;42.53;;;;;;;6.00;62.55;97889.63;1742177;81;20948;-80
2022/03/17 09:42:15;;;;;;;62.10;46.68;;;;;;;6.07;64.23;97890.47;1742778;81;20975;-80
2022/03/17 09:44:42;;;;;;;53.78;39.75;;;;;;;6.17;64.24;97894.80;1742914;81;20964;-80
2022/03/17 09:47:09;;;;;;;59.35;43.08;;;;;;;6.28;64.06;97894.80;1753039;81;21057;-80
2022/03/17 09:49:37;;;;;;;58.40;43.15;;;;;;;6.43;62.80;97904.89;1739682;81;21068;-80
2022/03/17 09:52:11;;;;;;;52.55;41.50;;;;;;;6.51;62.79;97902.08;1744875;81;21092;-80
2022/03/17 09:54:35;;;;;;;55.15;39.60;;;;;;;6.60;62.27;97899.23;1745538;81;20980;-81
2022/03/17 09:57:00;;;;;;;54.83;40.45;;;;;;;6.67;61.49;97897.84;1741578;81;21348;-81
2022/03/17 09:59:26;;;;;;;54.48;41.10;;;;;;;6.72;61.37;97900.05;1755348;81;20976;-82
2022/03/17 10:01:52;;;;;;;52.25;38.10;;;;;;;6.84;61.64;97897.80;1754225;81;21012;-80
2022/03/17 10:04:18;;;;;;;50.30;39.70;;;;;;;6.95;60.62;97895.16;1755438;81;20918;-81
2022/03/17 10:06:43;;;;;;;48.55;36.00;;;;;;;7.04;61.88;97889.75;1745306;81;21426;-80
2022/03/17 10:09:09;;;;;;;50.00;37.60;;;;;;;7.17;61.27;97895.58;1747947;81;21301;-81
2022/03/17 10:11:37;;;;;;;52.33;39.25;;;;;;;7.30;60.50;97896.69;1745439;81;21036;-80
2022/03/17 10:14:05;;;;;;;45.33;33.60;;;;;;;7.35;58.71;97890.69;1760759;81;20964;-80
2022/03/17 10:16:31;;;;;;;43.40;32.95;;;;;;;7.44;58.60;97892.51;1678290;85;21020;-80
2022/03/17 10:18:59;;;;;;;49.93;37.58;;;;;;;7.55;59.19;97894.23;1763566;81;21009;-80
2022/03/17 10:21:27;;;;;;;44.90;36.08;;;;;;;7.61;58.65;97889.36;1744589;81;21031;-80
2022/03/17 10:24:06;;;;;;;46.33;36.05;;;;;;;7.68;58.90;97881.45;1752617;81;21085;-80
2022/03/17 10:26:50;;;;;;;45.48;34.85;;;;;;;7.73;57.38;97893.53;1743796;81;20996;-80
2022/03/17 10:29:27;;;;;;;44.27;34.43;;;;;;;7.74;58.56;97889.17;1751414;81;21487;-80
2022/03/17 10:32:07;;;;;;;47.13;34.83;;;;;;;7.83;57.71;97891.83;1750487;82;21012;-80
2022/03/17 10:34:48;;;;;;;44.38;34.30;;;;;;;7.88;56.92;97891.44;1746109;81;21419;-80
2022/03/17 10:37:19;;;;;;;51.13;35.88;;;;;;;7.98;57.75;97895.39;1745423;81;21004;-80
2022/03/17 10:39:47;;;;;;;46.42;36.88;;;;;;;8.07;53.39;97887.65;1751566;81;21020;-80
2022/03/17 10:42:16;;;;;;;42.93;34.20;;;;;;;8.09;54.88;97890.11;1751442;81;21123;-80
2022/03/17 10:44:52;;;;;;;40.25;32.35;;;;;;;8.21;56.71;97883.90;1751494;81;20992;-81
2022/03/17 10:47:27;;;;;;;44.67;32.93;;;;;;;8.35;55.43;97885.35;1751415;81;21040;-80
2022/03/17 10:50:12;;;;;;;39.42;29.95;;;;;;;8.47;56.05;97893.38;1743077;81;21024;-81
2022/03/17 10:52:49;;;;;;;40.48;30.88;;;;;;;8.54;54.50;97891.89;1741122;81;21040;-81
2022/03/17 10:55:21;;;;;;;43.73;31.40;;;;;;;8.58;54.15;97896.32;1745514;81;21064;-80
2022/03/17 10:57:48;;;;;;;47.50;35.00;;;;;;;8.63;55.14;97895.47;1731702;82;21042;-80
2022/03/17 11:00:26;;;;;;;40.52;29.40;;;;;;;8.67;55.82;97887.77;1751277;81;21431;-81
2022/03/17 11:02:56;;;;;;;42.20;32.25;;;;;;;8.71;53.77;97896.43;1764026;81;21012;-80
2022/03/17 11:05:21;;;;;;;40.95;29.77;;;;;;;8.75;54.48;97883.20;1751398;81;20979;-80
2022/03/17 11:07:47;;;;;;;33.35;25.88;;;;;;;8.75;53.22;97890.50;1764000;81;21355;-80
2022/03/17 11:10:15;;;;;;;40.90;30.68;;;;;;;8.79;51.51;97888.48;1741259;81;21111;-80
2022/03/17 11:12:40;;;;;;;42.13;32.42;;;;;;;8.88;54.25;97885.89;1733550;82;21060;-80
2022/03/17 11:15:08;;;;;;;40.48;28.10;;;;;;;9.00;54.28;97886.59;1733987;81;21498;-80
2022/03/17 11:17:42;;;;;;;35.08;28.52;;;;;;;9.08;53.05;97885.43;1754822;81;21012;-80
2022/03/17 11:20:11;;;;;;;34.80;27.10;;;;;;;9.11;52.82;97880.44;1744662;81;20977;-80
2022/03/17 11:22:37;;;;;;;34.92;27.20;;;;;;;9.09;51.39;97883.66;1733286;81;21348;-80
2022/03/17 11:25:24;;;;;;;35.88;28.42;;;;;;;9.09;52.68;97879.28;1752733;81;21411;-80
2022/03/17 11:27:56;;;;;;;33.10;26.68;;;;;;;9.17;51.61;97879.44;1753993;81;20953;-80
2022/03/17 11:30:22;;;;;;;34.45;27.30;;;;;;;9.19;51.77;97881.89;1755086;81;21039;-80
2022/03/17 11:32:58;;;;;;;33.05;25.70;;;;;;;9.21;51.85;97887.77;1751907;81;20949;-79
2022/03/17 11:35:33;;;;;;;33.50;26.52;;;;;;;9.31;51.23;97889.89;1759347;81;20981;-80
2022/03/17 11:38:16;;;;;;;26.50;23.18;;;;;;;9.30;50.44;97896.03;1745652;81;21029;-80
2022/03/17 11:41:14;;;;;;;31.07;23.85;;;;;;;9.19;49.57;97897.45;1760342;81;20961;-80